Stonington, Maine
Current Conditions -  °F | °C
As of 1:55 PM on Thursday 23 Oct 2014 (Local Time) from KRKD Reporting Station
Overcast Overcast  
Wind Chill: 52°   Ceiling: 500
Heat Index: 52°   Visibility: 2.5mi
Dew Point: 50°   Wind: 15mph
Humidity: 94%   Direction: 40°NE
Pressure: 29.75"   Gusts: 28mph
Location:  44.16°N, 68.67°W
Report Text: KRKD 231755Z AUTO 04013G24KT 2 1/2SM BKN005 OVC013 11/10 A2975 RMK AO1 VIS 1 3/4V4 LTG DSNT SE P0024 60086 10110 20110 57010
Loading
Personal Weather Stations






























Interactive Weather Map
Tropical Storm Tracking
New forecast layout! Learn more

10-Day Weather Forecast

Advertisements
Track Severe Weather on mobile